Time;durP1;ratioP1;P1;durP2;ratioP2;P2;SDS_P1;SDS_P2;PMS_P1;PMS_P2;Temp;Humidity;BMP_temperature;BMP_pressure;BME280_temperature;BME280_humidity;BME280_pressure;Samples;Min_cycle;Max_cycle;Signal;HPM_P1;HPM_P2
2021/03/08 08:13:39;;;;;;;22.77;9.87;;;11.80;94.50;;;;;;4953251;23;20256;-71
2021/03/08 08:16:08;;;;;;;23.13;10.40;;;12.00;93.80;;;;;;4936980;29;20220;-71
2021/03/08 08:18:38;;;;;;;23.13;9.97;;;12.10;93.20;;;;;;4936960;29;20216;-71
2021/03/08 08:21:06;;;;;;;24.20;10.53;;;12.20;92.80;;;;;;4921223;29;20237;-70
2021/03/08 08:23:36;;;;;;;25.23;11.37;;;11.50;92.70;;;;;;4918088;29;20210;-71
2021/03/08 08:26:06;;;;;;;25.47;10.87;;;11.00;93.80;;;;;;4917930;29;20248;-70
2021/03/08 08:28:32;;;;;;;19.87;9.93;;;11.20;93.90;;;;;;4918081;29;20720;-70
2021/03/08 08:31:00;;;;;;;21.20;9.83;;;11.70;93.20;;;;;;4917732;29;20281;-71
2021/03/08 08:33:28;;;;;;;20.00;9.83;;;11.70;93.20;;;;;;4917856;29;20261;-70
2021/03/08 08:36:17;;;;;;;23.00;9.87;;;11.70;93.50;;;;;;4917635;29;20220;-71
2021/03/08 08:39:15;;;;;;;19.23;9.53;;;12.10;92.80;;;;;;4917705;29;20205;-71
2021/03/08 08:41:41;;;;;;;23.60;11.20;;;12.70;92.30;;;;;;4917582;29;20214;-70
2021/03/08 08:44:38;;;;;;;24.03;11.43;;;12.80;92.00;;;;;;4917838;29;20237;-70
2021/03/08 08:47:15;;;;;;;22.97;10.10;;;12.80;91.30;;;;;;4917610;29;20213;-70
2021/03/08 08:49:43;;;;;;;24.43;11.00;;;12.70;91.40;;;;;;4917391;29;20288;-70
2021/03/08 08:52:09;;;;;;;22.23;9.43;;;12.50;91.60;;;;;;4917788;29;20232;-70
2021/03/08 08:54:56;;;;;;;21.10;10.07;;;12.30;91.60;;;;;;4917683;29;20213;-70
2021/03/08 08:57:22;;;;;;;21.70;10.87;;;11.90;92.20;;;;;;4917788;29;20209;-71
2021/03/08 09:00:15;;;;;;;21.47;9.93;;;12.10;91.70;;;;;;4917513;29;20304;-71
2021/03/08 09:02:42;;;;;;;17.17;8.20;;;12.00;91.90;;;;;;4917807;29;20296;-71
2021/03/08 09:05:39;;;;;;;18.70;9.07;;;12.10;91.50;;;;;;4917685;29;20237;-71
2021/03/08 09:08:27;;;;;;;23.27;9.50;;;12.00;91.50;;;;;;4917533;29;20210;-70
2021/03/08 09:10:54;;;;;;;18.57;8.50;;;11.90;91.40;;;;;;4917242;29;20237;-70
2021/03/08 09:13:22;;;;;;;22.93;9.60;;;11.80;91.60;;;;;;4917071;29;20862;-70
2021/03/08 09:15:48;;;;;;;21.13;9.67;;;11.70;91.00;;;;;;4917111;29;20268;-71
2021/03/08 09:18:15;;;;;;;23.20;10.17;;;11.20;92.10;;;;;;4917132;29;20210;-70
2021/03/08 09:20:43;;;;;;;20.83;9.40;;;11.10;92.50;;;;;;4916973;29;20316;-69
2021/03/08 09:23:22;;;;;;;21.90;8.63;;;11.00;92.90;;;;;;4916869;29;20252;-70
2021/03/08 09:25:56;;;;;;;20.40;8.80;;;10.80;92.80;;;;;;4917003;29;20596;-71
2021/03/08 09:28:22;;;;;;;17.70;8.60;;;10.00;93.70;;;;;;4916871;29;20280;-69
2021/03/08 09:30:50;;;;;;;20.20;8.70;;;10.00;93.80;;;;;;4916811;29;20234;-69
2021/03/08 09:33:17;;;;;;;18.57;8.27;;;9.90;94.00;;;;;;4916989;29;20688;-70
2021/03/08 09:35:47;;;;;;;21.23;8.80;;;9.80;93.80;;;;;;4916661;29;20301;-70
2021/03/08 09:38:15;;;;;;;16.40;7.33;;;9.50;93.90;;;;;;4916807;29;20277;-70
2021/03/08 09:40:43;;;;;;;18.30;8.40;;;9.50;93.30;;;;;;4916847;29;20230;-69
2021/03/08 09:43:20;;;;;;;17.67;7.90;;;9.40;93.80;;;;;;4916894;29;20213;-70
2021/03/08 09:45:55;;;;;;;21.10;8.10;;;9.40;94.00;;;;;;4916638;29;20245;-70
2021/03/08 09:48:21;;;;;;;20.03;7.73;;;9.10;94.20;;;;;;4917180;29;20209;-69
2021/03/08 09:50:48;;;;;;;20.10;7.90;;;8.80;95.10;;;;;;4917345;29;20240;-70
2021/03/08 09:53:14;;;;;;;19.47;7.63;;;8.60;95.70;;;;;;4916670;29;20220;-71
2021/03/08 09:55:41;;;;;;;18.10;7.97;;;8.50;96.20;;;;;;4916889;29;20217;-71
2021/03/08 09:58:13;;;;;;;24.93;8.73;;;8.40;95.90;;;;;;4916693;29;20206;-71
2021/03/08 10:00:42;;;;;;;19.57;7.47;;;8.60;96.10;;;;;;4916574;29;20233;-71
2021/03/08 10:03:09;;;;;;;19.87;8.00;;;8.50;96.50;;;;;;4916783;29;20213;-71
2021/03/08 10:05:41;;;;;;;19.13;7.70;;;8.60;97.00;;;;;;4916854;29;20248;-71
2021/03/08 10:08:09;;;;;;;20.60;6.83;;;8.70;96.60;;;;;;4920616;29;20213;-71
2021/03/08 10:10:41;;;;;;;21.83;8.07;;;8.80;94.90;;;;;;4920389;29;20593;-69
2021/03/08 10:13:07;;;;;;;15.80;6.17;;;8.90;95.40;;;;;;4920453;29;20213;-70
2021/03/08 10:15:42;;;;;;;18.80;8.20;;;8.90;95.40;;;;;;4920166;29;20676;-71
2021/03/08 10:18:09;;;;;;;18.97;8.10;;;8.90;96.30;;;;;;4920342;29;20272;-71
2021/03/08 10:20:44;;;;;;;24.50;8.50;;;8.90;96.60;;;;;;4920145;29;20712;-71
2021/03/08 10:23:15;;;;;;;15.83;7.07;;;9.10;96.40;;;;;;4920451;29;20205;-71
2021/03/08 10:25:41;;;;;;;13.23;5.40;;;9.30;94.30;;;;;;4920115;29;20272;-71
2021/03/08 10:28:08;;;;;;;13.17;5.70;;;9.20;94.40;;;;;;4920388;29;20209;-71
2021/03/08 10:30:36;;;;;;;14.07;6.80;;;9.30;94.00;;;;;;4919912;29;20589;-71
2021/03/08 10:33:06;;;;;;;15.53;6.20;;;9.30;93.60;;;;;;4920126;29;20206;-71
2021/03/08 10:35:34;;;;;;;13.67;5.57;;;8.80;94.10;;;;;;4920052;29;20224;-70
2021/03/08 10:38:01;;;;;;;18.67;6.67;;;8.60;94.50;;;;;;4919902;29;20210;-71
2021/03/08 10:40:28;;;;;;;17.33;6.17;;;8.80;94.30;;;;;;4919797;29;20233;-71
2021/03/08 10:42:56;;;;;;;13.93;6.00;;;8.90;95.20;;;;;;4919853;29;20557;-70
2021/03/08 10:45:23;;;;;;;15.80;6.40;;;9.20;94.20;;;;;;4919631;29;20241;-71
2021/03/08 10:48:09;;;;;;;14.13;5.97;;;9.10;93.70;;;;;;4919865;29;20247;-71
2021/03/08 10:50:44;;;;;;;14.90;6.10;;;8.70;93.70;;;;;;4919569;29;20229;-71
2021/03/08 10:53:11;;;;;;;16.83;6.93;;;8.40;95.10;;;;;;4919934;29;20216;-70
2021/03/08 10:55:37;;;;;;;13.27;6.00;;;8.70;94.90;;;;;;4919936;29;20236;-71
2021/03/08 10:58:03;;;;;;;16.27;5.93;;;8.70;94.40;;;;;;4919776;29;20214;-71
2021/03/08 11:00:30;;;;;;;16.13;6.10;;;8.70;94.40;;;;;;4919669;29;20229;-71
2021/03/08 11:02:59;;;;;;;15.97;5.30;;;8.50;94.60;;;;;;4919619;29;20209;-71
2021/03/08 11:05:27;;;;;;;12.37;5.07;;;8.40;94.50;;;;;;4919494;29;20285;-70
2021/03/08 11:07:53;;;;;;;15.23;5.57;;;8.50;94.50;;;;;;4919330;29;20669;-71
2021/03/08 11:10:32;;;;;;;14.50;5.87;;;8.60;94.50;;;;;;4919487;29;20253;-71
2021/03/08 11:13:02;;;;;;;16.53;6.30;;;8.50;95.00;;;;;;4919185;29;20221;-70
2021/03/08 11:15:29;;;;;;;13.93;6.23;;;8.50;95.00;;;;;;4919282;29;20210;-70
2021/03/08 11:17:55;;;;;;;15.47;5.43;;;8.80;94.30;;;;;;4918089;29;20288;-71
2021/03/08 11:20:25;;;;;;;15.70;6.13;;;8.90;94.00;;;;;;4919226;29;20233;-71
2021/03/08 11:22:57;;;;;;;12.47;5.47;;;8.90;94.50;;;;;;4919370;29;20265;-71
2021/03/08 11:25:32;;;;;;;12.90;5.20;;;8.90;94.50;;;;;;4919232;29;20237;-69
2021/03/08 11:27:59;;;;;;;13.17;5.40;;;8.70;94.30;;;;;;4918861;29;20261;-71
2021/03/08 11:30:27;;;;;;;9.70;4.30;;;8.60;94.90;;;;;;4918785;29;20226;-70
2021/03/08 11:32:54;;;;;;;12.03;5.10;;;8.70;94.30;;;;;;4919140;29;20212;-70
2021/03/08 11:35:23;;;;;;;12.93;5.17;;;9.00;94.60;;;;;;4918937;29;20213;-71
2021/03/08 11:37:51;;;;;;;15.93;6.30;;;9.20;95.10;;;;;;4919171;29;20224;-71
2021/03/08 11:40:22;;;;;;;12.80;5.43;;;9.20;94.30;;;;;;4918864;29;20701;-71
2021/03/08 11:42:48;;;;;;;16.03;5.70;;;9.00;94.70;;;;;;4918735;29;20210;-71
2021/03/08 11:45:16;;;;;;;15.13;6.17;;;8.90;95.20;;;;;;4918849;29;20248;-70
2021/03/08 11:47:42;;;;;;;14.07;4.90;;;8.80;95.10;;;;;;4918730;29;20629;-70
2021/03/08 11:50:10;;;;;;;9.63;4.90;;;8.70;94.70;;;;;;4918704;29;20230;-71
2021/03/08 11:52:36;;;;;;;11.47;4.33;;;8.60;94.80;;;;;;4918677;29;20625;-70
2021/03/08 11:55:03;;;;;;;13.47;4.97;;;8.80;94.50;;;;;;4918740;29;20213;-70
2021/03/08 11:57:30;;;;;;;13.60;4.63;;;8.90;94.40;;;;;;4918542;29;20213;-70
2021/03/08 11:59:56;;;;;;;12.27;5.00;;;9.10;94.50;;;;;;4918490;29;20226;-70
2021/03/08 12:02:23;;;;;;;9.90;4.97;;;9.20;94.50;;;;;;4918509;29;20209;-70
2021/03/08 12:04:49;;;;;;;13.13;5.43;;;9.20;94.20;;;;;;4918380;29;20240;-69
2021/03/08 12:07:15;;;;;;;12.27;5.20;;;9.30;94.20;;;;;;4918441;29;20210;-70
2021/03/08 12:09:41;;;;;;;11.13;4.90;;;9.40;94.20;;;;;;4918441;29;20237;-71
2021/03/08 12:12:09;;;;;;;16.07;5.00;;;9.60;94.10;;;;;;4918328;29;20209;-71
2021/03/08 12:14:36;;;;;;;12.13;5.43;;;9.70;93.00;;;;;;4918153;29;20257;-70
2021/03/08 12:17:03;;;;;;;9.90;4.20;;;9.60;94.70;;;;;;4918205;29;20205;-70
2021/03/08 12:19:29;;;;;;;12.70;5.20;;;9.70;93.40;;;;;;4918154;29;20293;-70
2021/03/08 12:21:55;;;;;;;10.40;4.37;;;9.70;92.70;;;;;;4918059;29;20798;-69
2021/03/08 12:24:21;;;;;;;10.93;4.20;;;9.40;92.60;;;;;;4917896;29;20233;-71
2021/03/08 12:26:48;;;;;;;10.60;4.60;;;9.40;93.40;;;;;;4917904;29;20213;-70
2021/03/08 12:29:14;;;;;;;11.63;4.30;;;9.20;93.50;;;;;;4917553;29;20217;-70
2021/03/08 12:31:41;;;;;;;12.17;5.67;;;9.00;94.00;;;;;;4918113;29;20277;-71
2021/03/08 12:34:07;;;;;;;10.67;5.17;;;8.80;94.40;;;;;;4917991;29;20206;-70
2021/03/08 12:36:34;;;;;;;14.50;5.50;;;8.60;94.70;;;;;;4917790;29;20665;-70
2021/03/08 12:39:00;;;;;;;14.27;5.30;;;8.60;95.20;;;;;;4918165;29;20257;-70
2021/03/08 12:41:26;;;;;;;12.53;5.43;;;8.70;94.60;;;;;;4918516;29;20229;-71
2021/03/08 12:43:53;;;;;;;11.80;4.90;;;8.50;95.00;;;;;;4917731;29;20216;-70
2021/03/08 12:46:21;;;;;;;13.60;5.27;;;8.50;95.50;;;;;;4917586;29;20233;-70
2021/03/08 12:48:48;;;;;;;12.53;4.80;;;8.80;94.80;;;;;;4917999;29;20225;-70
2021/03/08 12:51:15;;;;;;;12.27;5.20;;;9.10;94.50;;;;;;4917527;29;20248;-70
2021/03/08 12:53:41;;;;;;;10.10;4.07;;;9.20;94.20;;;;;;4918628;29;20210;-69
2021/03/08 12:56:07;;;;;;;8.67;4.07;;;9.00;93.70;;;;;;4919017;29;20217;-70
2021/03/08 12:58:33;;;;;;;10.60;4.90;;;8.90;94.00;;;;;;4917991;29;20225;-71
2021/03/08 13:01:00;;;;;;;10.07;4.10;;;9.00;93.60;;;;;;4917940;29;20232;-70
2021/03/08 13:03:26;;;;;;;11.10;4.47;;;9.10;93.70;;;;;;4918134;29;20236;-69
2021/03/08 13:05:53;;;;;;;12.63;5.37;;;9.20;93.90;;;;;;4917865;29;20252;-70
2021/03/08 13:08:20;;;;;;;9.97;4.60;;;9.30;94.30;;;;;;4917869;29;20209;-70
2021/03/08 13:10:47;;;;;;;12.43;5.57;;;9.60;93.80;;;;;;4917630;29;20229;-69
2021/03/08 13:13:13;;;;;;;9.60;4.70;;;9.80;93.60;;;;;;4917372;29;20210;-69
2021/03/08 13:15:39;;;;;;;10.57;5.53;;;9.60;92.90;;;;;;4917266;29;20209;-71
2021/03/08 13:18:06;;;;;;;13.67;4.83;;;9.60;93.20;;;;;;4917524;29;20214;-71
2021/03/08 13:20:32;;;;;;;11.97;4.97;;;9.40;93.20;;;;;;4918197;29;20257;-70
2021/03/08 13:22:59;;;;;;;12.50;4.97;;;9.20;93.90;;;;;;4917369;29;20585;-71
2021/03/08 13:25:26;;;;;;;13.93;4.80;;;9.20;93.40;;;;;;4917186;29;20605;-70
2021/03/08 13:27:52;;;;;;;12.60;4.63;;;9.10;93.60;;;;;;4917150;29;20269;-69
2021/03/08 13:30:19;;;;;;;15.80;5.80;;;9.10;93.70;;;;;;4917206;29;20629;-71
2021/03/08 13:32:46;;;;;;;10.20;4.83;;;9.40;94.10;;;;;;4917190;29;20213;-69
2021/03/08 13:35:14;;;;;;;9.90;4.30;;;9.40;93.90;;;;;;4917229;29;20610;-68
2021/03/08 13:37:41;;;;;;;11.63;4.53;;;9.50;93.30;;;;;;4917300;29;20268;-70
2021/03/08 13:40:10;;;;;;;14.13;5.30;;;9.50;93.80;;;;;;4916794;29;20237;-69
2021/03/08 13:42:38;;;;;;;14.03;4.93;;;9.70;93.60;;;;;;4917748;29;20206;-70
2021/03/08 13:45:06;;;;;;;12.43;4.70;;;9.90;93.40;;;;;;4917576;29;20269;-69
2021/03/08 13:47:32;;;;;;;14.60;4.60;;;10.10;92.00;;;;;;4918674;29;20296;-71
2021/03/08 13:49:59;;;;;;;10.40;4.73;;;10.00;92.70;;;;;;4917015;29;20229;-70
2021/03/08 13:52:25;;;;;;;10.30;4.87;;;10.00;92.10;;;;;;4917086;29;20212;-69
2021/03/08 13:54:51;;;;;;;14.53;5.50;;;10.00;91.90;;;;;;4917812;29;20291;-69
2021/03/08 13:57:18;;;;;;;9.70;4.50;;;10.00;92.60;;;;;;4916795;29;20214;-69
2021/03/08 13:59:44;;;;;;;14.90;5.43;;;10.00;92.40;;;;;;4916683;29;20240;-69
2021/03/08 14:02:11;;;;;;;12.27;4.83;;;10.00;92.00;;;;;;4916758;29;20407;-71
2021/03/08 14:04:37;;;;;;;13.77;5.33;;;10.00;92.00;;;;;;4916329;29;20225;-71
2021/03/08 14:07:03;;;;;;;12.60;5.83;;;9.90;93.30;;;;;;4916786;29;20213;-68
2021/03/08 14:09:30;;;;;;;13.23;6.13;;;10.00;92.90;;;;;;4916873;29;20241;-71
2021/03/08 14:11:56;;;;;;;10.63;5.03;;;10.10;93.10;;;;;;4916972;29;20205;-71
2021/03/08 14:14:23;;;;;;;13.40;5.33;;;10.20;93.10;;;;;;4917107;29;20292;-70
2021/03/08 14:16:49;;;;;;;12.13;5.53;;;10.20;92.50;;;;;;4916610;29;20213;-71
2021/03/08 14:19:16;;;;;;;12.37;4.77;;;10.40;92.60;;;;;;4916529;29;20740;-71
2021/03/08 14:21:42;;;;;;;14.33;5.40;;;10.50;92.30;;;;;;4916605;29;20216;-71
2021/03/08 14:24:09;;;;;;;12.70;5.10;;;10.50;91.40;;;;;;4916763;29;20235;-71
2021/03/08 14:26:35;;;;;;;12.27;5.03;;;10.30;91.50;;;;;;4916737;29;20217;-71
2021/03/08 14:29:01;;;;;;;10.63;4.63;;;10.10;91.60;;;;;;4916443;29;20215;-71
2021/03/08 14:31:28;;;;;;;11.47;4.57;;;10.30;91.80;;;;;;4916250;29;20229;-71
2021/03/08 14:33:55;;;;;;;13.03;5.63;;;10.50;92.30;;;;;;4916720;29;20214;-71
2021/03/08 14:36:21;;;;;;;12.63;5.43;;;10.60;91.90;;;;;;4916722;29;20213;-71
2021/03/08 14:38:47;;;;;;;13.13;5.77;;;10.50;91.60;;;;;;4916522;29;20621;-72
2021/03/08 14:41:14;;;;;;;13.90;5.13;;;10.60;91.70;;;;;;4916569;29;20230;-73
2021/03/08 14:43:40;;;;;;;14.10;4.93;;;10.80;91.20;;;;;;4916080;29;20218;-72
2021/03/08 14:46:06;;;;;;;12.67;4.73;;;10.90;90.80;;;;;;4916085;29;20241;-71
2021/03/08 14:48:33;;;;;;;12.83;5.30;;;10.60;90.70;;;;;;4916731;29;20213;-72
2021/03/08 14:50:59;;;;;;;11.87;4.73;;;10.50;91.40;;;;;;4916433;29;20229;-70
2021/03/08 14:53:25;;;;;;;11.43;4.73;;;10.20;91.40;;;;;;4919372;29;20280;-71
2021/03/08 14:55:52;;;;;;;11.73;4.47;;;10.10;91.90;;;;;;4919888;29;20221;-70
2021/03/08 14:58:18;;;;;;;10.93;4.53;;;9.90;92.50;;;;;;4919886;29;20680;-72
2021/03/08 15:00:44;;;;;;;12.43;5.27;;;9.90;92.40;;;;;;4919448;29;20241;-71
2021/03/08 15:03:11;;;;;;;12.50;5.10;;;10.00;92.00;;;;;;4919397;29;20716;-70
2021/03/08 15:05:38;;;;;;;12.17;4.30;;;10.00;92.00;;;;;;4919586;29;20245;-72
2021/03/08 15:08:04;;;;;;;12.87;5.03;;;10.00;91.90;;;;;;4919493;29;20213;-70
2021/03/08 15:10:32;;;;;;;14.93;5.43;;;10.10;91.80;;;;;;4919320;29;20237;-70
2021/03/08 15:12:58;;;;;;;10.40;5.20;;;10.00;91.70;;;;;;4919157;29;20261;-70
2021/03/08 15:15:24;;;;;;;12.47;5.50;;;9.90;92.40;;;;;;4919084;29;20210;-72
2021/03/08 15:17:50;;;;;;;10.80;5.07;;;9.70;92.80;;;;;;4919198;29;20546;-72
2021/03/08 15:20:18;;;;;;;14.17;5.93;;;9.60;93.00;;;;;;4919239;29;20229;-70
2021/03/08 15:22:45;;;;;;;12.70;5.03;;;9.90;92.90;;;;;;4919260;29;20217;-70
2021/03/08 15:25:12;;;;;;;12.53;4.83;;;10.10;91.90;;;;;;4918957;29;20245;-69
2021/03/08 15:27:40;;;;;;;10.17;4.63;;;10.40;91.80;;;;;;4919091;29;20669;-69
2021/03/08 15:30:08;;;;;;;10.27;5.23;;;10.50;91.60;;;;;;4918923;29;20225;-71
2021/03/08 15:32:34;;;;;;;12.93;5.90;;;10.50;91.20;;;;;;4919289;29;20709;-70
2021/03/08 15:35:01;;;;;;;13.87;5.03;;;10.40;91.40;;;;;;4919214;29;20573;-69
2021/03/08 15:37:27;;;;;;;12.03;5.50;;;10.50;91.60;;;;;;4918981;29;20206;-68
2021/03/08 15:39:55;;;;;;;11.33;4.87;;;10.50;91.10;;;;;;4918719;29;20320;-70
2021/03/08 15:42:21;;;;;;;10.80;5.13;;;10.50;91.20;;;;;;4918783;29;20210;-68
2021/03/08 15:44:48;;;;;;;12.00;4.93;;;10.50;91.20;;;;;;4918902;29;20233;-69
2021/03/08 15:47:14;;;;;;;14.50;5.40;;;10.60;91.40;;;;;;4918970;29;20213;-68
2021/03/08 15:49:41;;;;;;;14.43;5.17;;;10.70;91.00;;;;;;4918732;29;20240;-68
2021/03/08 15:52:07;;;;;;;13.63;5.40;;;10.70;91.00;;;;;;4918883;29;20747;-68
2021/03/08 15:54:34;;;;;;;12.57;5.17;;;10.60;91.30;;;;;;4918658;29;20209;-68
2021/03/08 15:57:01;;;;;;;10.83;4.77;;;10.70;90.90;;;;;;4918494;29;20260;-69
2021/03/08 15:59:27;;;;;;;11.27;5.23;;;10.70;90.70;;;;;;4918505;29;20230;-69
2021/03/08 16:01:53;;;;;;;13.30;5.60;;;10.60;90.90;;;;;;4918736;29;20261;-69
2021/03/08 16:04:20;;;;;;;12.50;5.27;;;10.60;91.00;;;;;;4918084;29;20216;-71
2021/03/08 16:06:46;;;;;;;11.80;5.53;;;10.70;91.00;;;;;;4918562;29;20218;-70
2021/03/08 16:09:12;;;;;;;10.47;5.07;;;10.80;91.30;;;;;;4918326;29;20213;-69
2021/03/08 16:11:38;;;;;;;12.23;5.53;;;10.70;91.60;;;;;;4918226;29;20573;-70
2021/03/08 16:14:05;;;;;;;12.73;4.97;;;10.70;91.50;;;;;;4918018;29;20228;-68
2021/03/08 16:16:32;;;;;;;10.70;4.83;;;10.80;91.00;;;;;;4918216;29;20577;-69
2021/03/08 16:18:58;;;;;;;11.43;5.10;;;10.90;90.80;;;;;;4917967;29;20214;-69
2021/03/08 16:21:24;;;;;;;14.37;4.87;;;10.90;90.50;;;;;;4917940;29;20716;-68
2021/03/08 16:23:50;;;;;;;10.33;4.80;;;10.70;91.60;;;;;;4917661;29;20210;-70
2021/03/08 16:26:17;;;;;;;13.90;5.43;;;10.60;91.50;;;;;;4917807;29;20588;-70
2021/03/08 16:28:43;;;;;;;12.63;5.07;;;10.60;91.80;;;;;;4918032;29;20237;-69
2021/03/08 16:31:10;;;;;;;12.90;5.43;;;10.60;92.60;;;;;;4918007;29;20600;-70
2021/03/08 16:33:36;;;;;;;10.53;5.10;;;10.60;92.40;;;;;;4917931;29;20261;-69
2021/03/08 16:36:03;;;;;;;11.50;4.87;;;10.60;91.70;;;;;;4917846;29;20212;-70
2021/03/08 16:38:31;;;;;;;13.43;5.70;;;10.50;91.50;;;;;;4917672;29;20218;-70
2021/03/08 16:40:58;;;;;;;14.23;4.87;;;10.40;91.40;;;;;;4917959;29;20325;-69
2021/03/08 16:43:25;;;;;;;12.77;4.60;;;10.40;92.10;;;;;;4917896;29;20217;-70
2021/03/08 16:45:51;;;;;;;10.67;4.43;;;10.40;91.40;;;;;;4917747;29;20241;-69
2021/03/08 16:48:18;;;;;;;8.43;4.17;;;9.90;92.10;;;;;;4917648;29;20214;-70
2021/03/08 16:50:45;;;;;;;10.17;4.27;;;9.60;92.30;;;;;;4917316;29;20225;-69
2021/03/08 16:53:12;;;;;;;10.57;3.93;;;9.30;92.60;;;;;;4917566;29;20222;-69
2021/03/08 16:55:38;;;;;;;10.97;4.33;;;9.20;92.90;;;;;;4917479;29;20269;-69
2021/03/08 16:58:05;;;;;;;9.83;3.97;;;9.20;93.30;;;;;;4917815;29;20216;-70
2021/03/08 17:00:31;;;;;;;9.23;4.10;;;9.20;94.10;;;;;;4917462;29;20236;-69
2021/03/08 17:02:57;;;;;;;11.27;3.80;;;9.10;94.60;;;;;;4917521;29;20213;-70
2021/03/08 17:05:25;;;;;;;7.07;3.80;;;9.20;94.40;;;;;;4917452;29;20237;-71
2021/03/08 17:07:51;;;;;;;9.60;4.60;;;9.30;94.30;;;;;;4917357;29;20273;-72
2021/03/08 17:10:19;;;;;;;13.37;5.33;;;9.30;94.50;;;;;;4917470;29;20233;-70
2021/03/08 17:12:46;;;;;;;10.97;4.20;;;9.30;94.20;;;;;;4917583;29;20221;-69
2021/03/08 17:15:15;;;;;;;10.13;4.33;;;9.30;94.20;;;;;;4916404;29;20264;-69
2021/03/08 17:17:41;;;;;;;9.67;4.13;;;9.20;94.30;;;;;;4917119;29;20214;-69
2021/03/08 17:20:10;;;;;;;9.90;4.20;;;9.20;94.80;;;;;;4917308;29;20229;-71
2021/03/08 17:22:37;;;;;;;9.57;4.00;;;9.00;94.70;;;;;;4917340;29;20572;-70
2021/03/08 17:25:05;;;;;;;9.10;4.60;;;9.00;96.30;;;;;;4917213;29;20233;-77
2021/03/08 17:27:33;;;;;;;9.73;3.97;;;8.90;96.20;;;;;;4917002;29;20748;-71
2021/03/08 17:29:59;;;;;;;10.93;3.97;;;8.80;96.40;;;;;;4916904;29;20229;-71
2021/03/08 17:32:26;;;;;;;11.17;3.93;;;8.70;96.80;;;;;;4916981;29;20209;-71
2021/03/08 17:34:53;;;;;;;14.33;4.93;;;8.70;96.90;;;;;;4916874;29;20221;-70
2021/03/08 17:37:19;;;;;;;9.27;4.13;;;8.70;97.50;;;;;;4916885;29;20210;-72
2021/03/08 17:39:46;;;;;;;11.77;4.27;;;8.60;97.00;;;;;;4916955;29;20245;-70
2021/03/08 17:42:12;;;;;;;9.67;3.73;;;8.50;97.50;;;;;;4917037;29;20214;-70
2021/03/08 17:44:39;;;;;;;10.23;4.23;;;8.50;98.00;;;;;;4916774;29;20210;-71
2021/03/08 17:47:05;;;;;;;9.47;4.20;;;8.40;98.30;;;;;;4917254;29;20217;-71
2021/03/08 17:49:31;;;;;;;11.87;4.17;;;8.40;98.40;;;;;;4917210;29;20297;-71
2021/03/08 17:51:58;;;;;;;8.87;4.10;;;8.30;98.50;;;;;;4916853;29;20210;-71
2021/03/08 17:54:25;;;;;;;11.63;4.17;;;8.30;98.70;;;;;;4916742;29;20206;-70
2021/03/08 17:56:52;;;;;;;12.73;4.73;;;8.30;99.20;;;;;;4916785;29;20214;-71
2021/03/08 17:59:18;;;;;;;11.40;4.43;;;8.20;99.50;;;;;;4916497;29;20669;-71
2021/03/08 18:01:44;;;;;;;11.10;4.10;;;8.20;99.40;;;;;;4916563;29;20215;-70
2021/03/08 18:04:10;;;;;;;17.60;4.90;;;8.20;99.90;;;;;;4916535;29;20209;-70
2021/03/08 18:06:37;;;;;;;14.13;4.90;;;8.20;99.90;;;;;;4916845;29;20241;-77
2021/03/08 18:09:03;;;;;;;14.97;5.10;;;8.10;99.90;;;;;;4916530;29;20206;-69
2021/03/08 18:11:30;;;;;;;16.10;4.77;;;8.10;99.90;;;;;;4916641;29;20237;-73
2021/03/08 18:13:57;;;;;;;13.00;4.80;;;8.00;99.90;;;;;;4916303;29;20214;-73
2021/03/08 18:16:23;;;;;;;12.97;4.37;;;8.10;99.90;;;;;;4916413;29;20276;-73
2021/03/08 18:18:49;;;;;;;10.47;4.43;;;8.10;99.90;;;;;;4916832;29;20277;-74
2021/03/08 18:21:16;;;;;;;10.80;4.67;;;8.20;99.90;;;;;;4916706;29;20233;-71
2021/03/08 18:23:42;;;;;;;12.80;4.90;;;8.10;99.90;;;;;;4910857;29;20213;-72
2021/03/08 18:26:08;;;;;;;10.47;4.40;;;8.10;99.90;;;;;;4909623;29;20585;-72
2021/03/08 18:28:34;;;;;;;14.27;5.37;;;8.10;99.90;;;;;;4913070;29;20221;-72
2021/03/08 18:31:02;;;;;;;12.67;4.90;;;8.00;99.90;;;;;;4908039;29;20241;-71
2021/03/08 18:33:28;;;;;;;14.80;5.67;;;8.10;99.90;;;;;;4913003;29;20610;-70
2021/03/08 18:35:54;;;;;;;11.73;5.30;;;8.00;99.90;;;;;;4909465;29;20241;-70
2021/03/08 18:38:20;;;;;;;10.53;5.13;;;7.90;99.90;;;;;;4905437;29;20210;-70
2021/03/08 18:40:47;;;;;;;12.43;5.23;;;7.90;99.90;;;;;;4912173;29;20333;-70
2021/03/08 18:43:13;;;;;;;13.97;5.33;;;7.90;99.90;;;;;;4914368;29;20213;-70
2021/03/08 18:45:40;;;;;;;15.30;6.03;;;7.90;99.90;;;;;;4913397;29;20233;-70
2021/03/08 18:48:09;;;;;;;13.57;5.57;;;8.00;99.90;;;;;;4910380;29;20225;-70
2021/03/08 18:50:35;;;;;;;12.50;5.10;;;8.00;99.90;;;;;;4912123;29;20223;-70
2021/03/08 18:53:02;;;;;;;16.93;5.97;;;8.00;99.90;;;;;;4909771;29;20210;-70
2021/03/08 18:55:28;;;;;;;14.43;6.50;;;7.90;99.90;;;;;;4911589;29;20210;-70
2021/03/08 18:57:54;;;;;;;14.87;6.33;;;8.00;99.90;;;;;;4912336;29;20213;-70
2021/03/08 19:00:22;;;;;;;17.77;6.70;;;8.10;99.90;;;;;;4910695;29;20230;-70
2021/03/08 19:02:48;;;;;;;22.07;6.63;;;7.90;99.90;;;;;;4911561;29;20213;-70
2021/03/08 19:05:16;;;;;;;25.27;7.43;;;7.90;99.90;;;;;;4905464;29;20233;-72
2021/03/08 19:07:42;;;;;;;16.27;6.67;;;7.80;99.90;;;;;;4903407;29;20217;-72
2021/03/08 19:10:09;;;;;;;12.60;5.73;;;7.70;99.90;;;;;;4913855;29;20239;-72
2021/03/08 19:12:36;;;;;;;13.03;5.63;;;7.70;99.90;;;;;;4911866;29;20210;-72
2021/03/08 19:15:03;;;;;;;18.37;6.47;;;7.70;99.90;;;;;;4903717;29;20221;-72
2021/03/08 19:17:29;;;;;;;15.73;5.63;;;7.70;99.90;;;;;;4910816;29;20223;-72
2021/03/08 19:19:56;;;;;;;15.77;5.70;;;7.60;99.90;;;;;;4908717;29;20229;-72
2021/03/08 19:22:23;;;;;;;11.70;5.47;;;7.60;99.90;;;;;;4910267;29;20609;-72
2021/03/08 19:24:49;;;;;;;12.30;5.30;;;7.50;99.90;;;;;;4908255;29;20229;-73
2021/03/08 19:27:16;;;;;;;13.10;5.43;;;7.60;99.90;;;;;;4915069;29;20616;-73
2021/03/08 19:29:42;;;;;;;12.93;5.40;;;7.50;99.90;;;;;;4915806;29;20229;-71
2021/03/08 19:32:08;;;;;;;16.87;6.70;;;7.40;99.90;;;;;;4915254;29;20214;-72
2021/03/08 19:34:35;;;;;;;15.60;6.57;;;7.70;99.90;;;;;;4911575;29;20214;-73
2021/03/08 19:37:01;;;;;;;14.87;7.27;;;7.90;99.90;;;;;;4907428;29;20221;-73
2021/03/08 19:39:28;;;;;;;15.67;6.60;;;7.90;99.90;;;;;;4908339;29;20230;-74
2021/03/08 19:41:54;;;;;;;16.83;7.57;;;7.80;99.90;;;;;;4913554;29;20214;-71
2021/03/08 19:44:21;;;;;;;17.57;7.07;;;7.90;99.90;;;;;;4912754;29;20657;-71
2021/03/08 19:46:47;;;;;;;17.73;6.90;;;7.90;99.90;;;;;;4911029;29;20312;-71
2021/03/08 19:49:14;;;;;;;18.67;7.03;;;7.90;99.90;;;;;;4915060;29;20214;-71
2021/03/08 19:51:41;;;;;;;15.37;7.10;;;8.00;99.90;;;;;;4909388;29;20740;-71
2021/03/08 19:54:07;;;;;;;17.00;7.53;;;7.90;99.90;;;;;;4907941;29;20215;-71
2021/03/08 19:56:34;;;;;;;18.07;6.80;;;8.00;99.90;;;;;;4911348;29;20210;-71
2021/03/08 19:59:01;;;;;;;18.23;7.23;;;7.90;99.90;;;;;;4908817;29;20214;-71
2021/03/08 20:01:27;;;;;;;19.80;8.43;;;8.00;99.90;;;;;;4910991;29;21296;-71
2021/03/08 20:03:54;;;;;;;15.70;7.03;;;8.10;99.90;;;;;;4909360;29;20653;-71
2021/03/08 20:06:20;;;;;;;17.13;7.20;;;8.10;99.90;;;;;;4911858;29;20233;-71
2021/03/08 20:08:47;;;;;;;16.93;6.67;;;8.10;99.90;;;;;;4910783;29;20213;-71
2021/03/08 20:11:13;;;;;;;15.67;6.93;;;8.10;99.90;;;;;;4909434;29;20699;-72
2021/03/08 20:13:45;;;;;;;17.20;6.83;;;8.20;99.90;;;;;;4908900;29;20223;-71
2021/03/08 20:16:12;;;;;;;16.80;7.67;;;8.20;99.90;;;;;;4909100;29;20288;-71
2021/03/08 20:18:39;;;;;;;16.60;6.53;;;8.20;99.90;;;;;;4910189;29;20257;-71
2021/03/08 20:21:05;;;;;;;17.07;6.73;;;8.20;99.90;;;;;;4908095;29;20225;-71
2021/03/08 20:23:31;;;;;;;20.53;6.87;;;8.20;99.90;;;;;;4905739;29;20203;-71
2021/03/08 20:25:58;;;;;;;14.67;6.10;;;8.10;99.90;;;;;;4905420;29;20237;-71
2021/03/08 20:28:24;;;;;;;18.73;6.97;;;8.00;99.90;;;;;;4909904;29;20261;-71
2021/03/08 20:30:51;;;;;;;19.67;7.10;;;8.10;99.90;;;;;;4909469;29;20240;-71
2021/03/08 20:33:18;;;;;;;15.90;7.17;;;8.00;99.90;;;;;;4908379;29;20725;-71
2021/03/08 20:35:44;;;;;;;13.57;5.93;;;8.00;99.90;;;;;;4909320;29;20210;-71
2021/03/08 20:38:11;;;;;;;15.27;6.30;;;8.10;99.90;;;;;;4907222;29;20213;-71
2021/03/08 20:40:37;;;;;;;15.90;6.10;;;8.10;99.90;;;;;;4909758;29;20226;-71
2021/03/08 20:43:03;;;;;;;15.40;6.50;;;8.20;99.90;;;;;;4905048;29;20606;-71
2021/03/08 20:45:30;;;;;;;22.13;7.03;;;8.30;99.90;;;;;;4911959;29;20588;-71
2021/03/08 20:47:57;;;;;;;16.50;6.03;;;8.40;99.90;;;;;;4905001;29;20555;-71
2021/03/08 20:50:23;;;;;;;19.63;7.63;;;8.40;99.90;;;;;;4908034;29;20225;-71
2021/03/08 20:52:49;;;;;;;19.73;6.93;;;8.30;99.90;;;;;;4906863;29;20213;-71
2021/03/08 20:55:16;;;;;;;19.80;7.23;;;8.30;99.90;;;;;;4906087;29;20218;-71
2021/03/08 20:57:42;;;;;;;17.00;7.00;;;8.30;99.90;;;;;;4910033;29;20685;-71